Other Surface Observations
Issued by NWS Great Falls, MT

Home | Current Version | Previous Version | Text Only | Print | Product List | Glossary On
Versions: 1 2 3 4 5 6 7 8 9 10 11 12 13 14 15 16 17 18 19 20 21 22 23 24 25 26 27 28 29 30 31 32 33 34 35 36 37 38 39 40 41 42 43 44 45 46 47 48 49 50
000
SXUS55 KTFX 261936
OSOTFX
AREA AWOS OBSERVATIONS
NATIONAL WEATHER SERVICE GREAT FALLS MT
1235 PM MST FRI DEC 26 2014

METAR KPWD 261930Z AUTO 15007KT 10SM M09/M11 A3012 RMK PLENTYWOOD
METAR KPO1 261930Z AUTO 07006KT 6SM M09/M11 A3013 RMK POPLAR
METAR K1S3 261930Z AUTO 00000KT 10SM M02/M08 A3008 RMK FORSYTH
METAR KS71 261930Z AUTO 27008KT 10SM M04/M07 A3013 RMK CHINOOK
METAR K6S0 261930Z AUTO 23013G19KT 10SM M05/M09 A3002 RMK BIG TIMBER
METAR K38S 261930Z AUTO 00000KT 10SM M04/M07 A3011 RMK DEER LODGE
METAR K3U3 261930Z AUTO 01005KT 10SM M04/M09 A3005 RMK ANACONDA
METAR K6S5 261930Z AUTO 20005KT 10SM M03/M05 A3013 RMK HAMILTON
METAR KS59 261930Z AUTO 00000KT 10SM M03/M06 A3022 RMK LIBBY



USA.gov is the U.S. government's official web portal to all federal, state and local government web resources and services.